sensor_id;sensor_type;location;lat;lon;timestamp;P1;durP1;ratioP1;P2;durP2;ratioP2
55224;SDS011;41091;49.400;8.684;2022-10-31T00:00:40;14.52;;;3.70;;
55224;SDS011;41091;49.400;8.684;2022-10-31T00:03:06;11.27;;;4.05;;
55224;SDS011;41091;49.400;8.684;2022-10-31T00:05:31;9.65;;;3.50;;
55224;SDS011;41091;49.400;8.684;2022-10-31T00:07:56;6.53;;;2.78;;
55224;SDS011;41091;49.400;8.684;2022-10-31T00:10:24;10.02;;;3.20;;
55224;SDS011;41091;49.400;8.684;2022-10-31T00:12:49;22.40;;;4.38;;
55224;SDS011;41091;49.400;8.684;2022-10-31T00:15:16;10.40;;;3.45;;
55224;SDS011;41091;49.400;8.684;2022-10-31T00:17:43;13.88;;;3.55;;
55224;SDS011;41091;49.400;8.684;2022-10-31T00:20:09;10.82;;;3.03;;
55224;SDS011;41091;49.400;8.684;2022-10-31T00:22:34;5.10;;;3.28;;
55224;SDS011;41091;49.400;8.684;2022-10-31T00:25:02;13.43;;;3.80;;
55224;SDS011;41091;49.400;8.684;2022-10-31T00:27:28;10.48;;;2.55;;
55224;SDS011;41091;49.400;8.684;2022-10-31T00:29:53;5.75;;;2.92;;
55224;SDS011;41091;49.400;8.684;2022-10-31T00:32:18;8.20;;;2.92;;
55224;SDS011;41091;49.400;8.684;2022-10-31T00:34:46;10.15;;;2.67;;
55224;SDS011;41091;49.400;8.684;2022-10-31T00:37:14;8.70;;;2.70;;
55224;SDS011;41091;49.400;8.684;2022-10-31T00:39:39;13.60;;;3.67;;
55224;SDS011;41091;49.400;8.684;2022-10-31T00:42:12;4.70;;;3.05;;
55224;SDS011;41091;49.400;8.684;2022-10-31T00:44:37;9.25;;;3.67;;
55224;SDS011;41091;49.400;8.684;2022-10-31T00:47:02;6.38;;;2.90;;
55224;SDS011;41091;49.400;8.684;2022-10-31T00:49:28;12.63;;;3.20;;
55224;SDS011;41091;49.400;8.684;2022-10-31T00:51:53;9.13;;;2.88;;
55224;SDS011;41091;49.400;8.684;2022-10-31T00:54:18;4.75;;;3.03;;
55224;SDS011;41091;49.400;8.684;2022-10-31T00:56:46;4.38;;;3.20;;
55224;SDS011;41091;49.400;8.684;2022-10-31T00:59:14;8.70;;;2.80;;
55224;SDS011;41091;49.400;8.684;2022-10-31T01:01:39;12.88;;;4.20;;
55224;SDS011;41091;49.400;8.684;2022-10-31T01:04:04;6.13;;;2.88;;
55224;SDS011;41091;49.400;8.684;2022-10-31T01:06:30;13.05;;;4.20;;
55224;SDS011;41091;49.400;8.684;2022-10-31T01:08:55;8.68;;;3.05;;
55224;SDS011;41091;49.400;8.684;2022-10-31T01:11:21;15.77;;;3.63;;
55224;SDS011;41091;49.400;8.684;2022-10-31T01:13:52;10.43;;;2.92;;
55224;SDS011;41091;49.400;8.684;2022-10-31T01:16:21;21.13;;;5.93;;
55224;SDS011;41091;49.400;8.684;2022-10-31T01:18:48;11.85;;;2.75;;
55224;SDS011;41091;49.400;8.684;2022-10-31T01:23:40;12.85;;;3.20;;
55224;SDS011;41091;49.400;8.684;2022-10-31T01:26:48;3.30;;;2.47;;
55224;SDS011;41091;49.400;8.684;2022-10-31T01:29:06;13.55;;;3.90;;
55224;SDS011;41091;49.400;8.684;2022-10-31T01:31:36;7.63;;;2.78;;
55224;SDS011;41091;49.400;8.684;2022-10-31T01:34:06;10.05;;;2.92;;
55224;SDS011;41091;49.400;8.684;2022-10-31T01:36:37;5.18;;;2.75;;
55224;SDS011;41091;49.400;8.684;2022-10-31T01:39:09;8.43;;;3.10;;
55224;SDS011;41091;49.400;8.684;2022-10-31T01:41:36;4.97;;;2.88;;
55224;SDS011;41091;49.400;8.684;2022-10-31T01:49:43;7.47;;;2.05;;
55224;SDS011;41091;49.400;8.684;2022-10-31T01:52:16;9.98;;;3.00;;
55224;SDS011;41091;49.400;8.684;2022-10-31T01:54:45;4.93;;;2.88;;
55224;SDS011;41091;49.400;8.684;2022-10-31T01:57:33;3.97;;;2.38;;
55224;SDS011;41091;49.400;8.684;2022-10-31T02:00:04;12.30;;;2.92;;
55224;SDS011;41091;49.400;8.684;2022-10-31T02:02:31;6.05;;;2.92;;
55224;SDS011;41091;49.400;8.684;2022-10-31T02:04:56;9.68;;;2.92;;
55224;SDS011;41091;49.400;8.684;2022-10-31T02:07:26;7.75;;;2.90;;
55224;SDS011;41091;49.400;8.684;2022-10-31T02:09:58;12.23;;;4.20;;
55224;SDS011;41091;49.400;8.684;2022-10-31T02:12:24;6.15;;;3.17;;
55224;SDS011;41091;49.400;8.684;2022-10-31T02:14:49;8.07;;;2.88;;
55224;SDS011;41091;49.400;8.684;2022-10-31T02:17:15;5.70;;;2.67;;
55224;SDS011;41091;49.400;8.684;2022-10-31T02:22:16;12.18;;;2.80;;
55224;SDS011;41091;49.400;8.684;2022-10-31T02:27:58;8.40;;;3.17;;
55224;SDS011;41091;49.400;8.684;2022-10-31T02:30:36;7.28;;;2.63;;
55224;SDS011;41091;49.400;8.684;2022-10-31T02:41:10;14.87;;;3.13;;
55224;SDS011;41091;49.400;8.684;2022-10-31T02:46:42;9.37;;;2.97;;
55224;SDS011;41091;49.400;8.684;2022-10-31T02:49:11;5.15;;;2.72;;
55224;SDS011;41091;49.400;8.684;2022-10-31T02:51:46;10.85;;;2.63;;
55224;SDS011;41091;49.400;8.684;2022-10-31T02:54:32;11.65;;;4.20;;
55224;SDS011;41091;49.400;8.684;2022-10-31T02:57:00;4.80;;;3.08;;
55224;SDS011;41091;49.400;8.684;2022-10-31T02:59:27;7.03;;;3.40;;
55224;SDS011;41091;49.400;8.684;2022-10-31T03:15:31;6.95;;;3.05;;
55224;SDS011;41091;49.400;8.684;2022-10-31T03:18:08;8.02;;;2.10;;
55224;SDS011;41091;49.400;8.684;2022-10-31T03:20:57;16.65;;;4.45;;
55224;SDS011;41091;49.400;8.684;2022-10-31T03:23:29;13.60;;;2.90;;
55224;SDS011;41091;49.400;8.684;2022-10-31T03:25:58;10.60;;;3.42;;
55224;SDS011;41091;49.400;8.684;2022-10-31T03:30:54;4.15;;;2.58;;
55224;SDS011;41091;49.400;8.684;2022-10-31T03:33:24;10.07;;;3.00;;
55224;SDS011;41091;49.400;8.684;2022-10-31T03:35:52;13.43;;;3.33;;
55224;SDS011;41091;49.400;8.684;2022-10-31T03:38:19;7.90;;;2.85;;
55224;SDS011;41091;49.400;8.684;2022-10-31T03:40:47;9.50;;;3.33;;
55224;SDS011;41091;49.400;8.684;2022-10-31T03:43:16;10.63;;;2.60;;
55224;SDS011;41091;49.400;8.684;2022-10-31T03:45:46;6.15;;;2.55;;
55224;SDS011;41091;49.400;8.684;2022-10-31T03:48:15;5.88;;;2.45;;
55224;SDS011;41091;49.400;8.684;2022-10-31T03:53:22;10.75;;;3.53;;
55224;SDS011;41091;49.400;8.684;2022-10-31T04:00:44;7.30;;;2.97;;
55224;SDS011;41091;49.400;8.684;2022-10-31T04:03:14;4.15;;;2.60;;
55224;SDS011;41091;49.400;8.684;2022-10-31T04:05:42;9.75;;;3.42;;
55224;SDS011;41091;49.400;8.684;2022-10-31T04:08:11;11.13;;;3.38;;
55224;SDS011;41091;49.400;8.684;2022-10-31T04:10:39;5.78;;;2.92;;
55224;SDS011;41091;49.400;8.684;2022-10-31T04:13:07;5.38;;;2.70;;
55224;SDS011;41091;49.400;8.684;2022-10-31T04:15:34;5.43;;;2.33;;
55224;SDS011;41091;49.400;8.684;2022-10-31T04:18:00;12.10;;;4.15;;
55224;SDS011;41091;49.400;8.684;2022-10-31T04:20:29;13.43;;;2.92;;
55224;SDS011;41091;49.400;8.684;2022-10-31T04:23:00;4.88;;;2.95;;
55224;SDS011;41091;49.400;8.684;2022-10-31T04:25:31;7.28;;;3.13;;
55224;SDS011;41091;49.400;8.684;2022-10-31T04:27:59;4.07;;;2.05;;
55224;SDS011;41091;49.400;8.684;2022-10-31T04:32:54;10.17;;;2.60;;
55224;SDS011;41091;49.400;8.684;2022-10-31T04:35:20;5.60;;;2.47;;
55224;SDS011;41091;49.400;8.684;2022-10-31T04:37:45;11.68;;;3.05;;
55224;SDS011;41091;49.400;8.684;2022-10-31T04:40:10;4.90;;;2.42;;
55224;SDS011;41091;49.400;8.684;2022-10-31T04:42:36;20.17;;;3.15;;
55224;SDS011;41091;49.400;8.684;2022-10-31T04:45:01;2.65;;;2.42;;
55224;SDS011;41091;49.400;8.684;2022-10-31T04:47:27;11.45;;;2.67;;
55224;SDS011;41091;49.400;8.684;2022-10-31T04:49:52;8.88;;;2.55;;
55224;SDS011;41091;49.400;8.684;2022-10-31T04:52:20;7.50;;;3.40;;
55224;SDS011;41091;49.400;8.684;2022-10-31T04:54:45;7.30;;;2.78;;
55224;SDS011;41091;49.400;8.684;2022-10-31T04:57:10;8.30;;;2.90;;
55224;SDS011;41091;49.400;8.684;2022-10-31T04:59:36;17.38;;;3.83;;
55224;SDS011;41091;49.400;8.684;2022-10-31T05:02:01;7.80;;;2.90;;
55224;SDS011;41091;49.400;8.684;2022-10-31T05:04:29;6.70;;;2.85;;
55224;SDS011;41091;49.400;8.684;2022-10-31T05:06:54;15.10;;;2.60;;
55224;SDS011;41091;49.400;8.684;2022-10-31T05:09:22;4.95;;;2.20;;
55224;SDS011;41091;49.400;8.684;2022-10-31T05:11:47;13.32;;;3.70;;
55224;SDS011;41091;49.400;8.684;2022-10-31T05:14:12;14.07;;;3.72;;
55224;SDS011;41091;49.400;8.684;2022-10-31T05:16:40;14.38;;;3.47;;
55224;SDS011;41091;49.400;8.684;2022-10-31T05:19:05;17.83;;;3.17;;
55224;SDS011;41091;49.400;8.684;2022-10-31T05:21:30;10.52;;;3.05;;
55224;SDS011;41091;49.400;8.684;2022-10-31T05:23:56;8.75;;;3.05;;
55224;SDS011;41091;49.400;8.684;2022-10-31T05:26:21;11.73;;;3.33;;
55224;SDS011;41091;49.400;8.684;2022-10-31T05:28:46;16.25;;;3.65;;
55224;SDS011;41091;49.400;8.684;2022-10-31T05:31:12;10.43;;;4.22;;
55224;SDS011;41091;49.400;8.684;2022-10-31T05:33:37;6.70;;;2.67;;
55224;SDS011;41091;49.400;8.684;2022-10-31T05:36:03;10.50;;;3.85;;
55224;SDS011;41091;49.400;8.684;2022-10-31T05:38:28;7.95;;;3.22;;
55224;SDS011;41091;49.400;8.684;2022-10-31T05:40:54;9.57;;;3.03;;
55224;SDS011;41091;49.400;8.684;2022-10-31T05:43:26;8.80;;;3.47;;
55224;SDS011;41091;49.400;8.684;2022-10-31T05:45:54;5.03;;;2.75;;
55224;SDS011;41091;49.400;8.684;2022-10-31T05:48:22;9.55;;;3.05;;
55224;SDS011;41091;49.400;8.684;2022-10-31T05:50:48;3.95;;;2.40;;
55224;SDS011;41091;49.400;8.684;2022-10-31T05:53:14;8.68;;;2.40;;
55224;SDS011;41091;49.400;8.684;2022-10-31T05:55:39;10.45;;;2.63;;
55224;SDS011;41091;49.400;8.684;2022-10-31T05:58:05;10.50;;;3.00;;
55224;SDS011;41091;49.400;8.684;2022-10-31T06:00:31;6.80;;;3.60;;
55224;SDS011;41091;49.400;8.684;2022-10-31T06:02:57;6.78;;;2.83;;
55224;SDS011;41091;49.400;8.684;2022-10-31T06:05:29;14.43;;;2.80;;
55224;SDS011;41091;49.400;8.684;2022-10-31T06:07:55;10.07;;;4.22;;
55224;SDS011;41091;49.400;8.684;2022-10-31T06:10:20;10.23;;;3.28;;
55224;SDS011;41091;49.400;8.684;2022-10-31T06:12:46;12.00;;;3.25;;
55224;SDS011;41091;49.400;8.684;2022-10-31T06:15:14;9.40;;;3.20;;
55224;SDS011;41091;49.400;8.684;2022-10-31T06:17:40;7.45;;;3.28;;
55224;SDS011;41091;49.400;8.684;2022-10-31T06:20:05;7.72;;;3.67;;
55224;SDS011;41091;49.400;8.684;2022-10-31T06:22:32;6.45;;;3.00;;
55224;SDS011;41091;49.400;8.684;2022-10-31T06:24:57;10.38;;;2.72;;
55224;SDS011;41091;49.400;8.684;2022-10-31T06:27:23;5.43;;;2.63;;
55224;SDS011;41091;49.400;8.684;2022-10-31T06:29:48;10.15;;;2.95;;
55224;SDS011;41091;49.400;8.684;2022-10-31T06:32:18;5.88;;;3.75;;
55224;SDS011;41091;49.400;8.684;2022-10-31T06:34:44;8.63;;;3.20;;
55224;SDS011;41091;49.400;8.684;2022-10-31T06:37:12;8.57;;;3.60;;
55224;SDS011;41091;49.400;8.684;2022-10-31T06:39:37;7.55;;;3.20;;
55224;SDS011;41091;49.400;8.684;2022-10-31T06:42:05;17.40;;;3.58;;
55224;SDS011;41091;49.400;8.684;2022-10-31T06:44:30;7.47;;;2.78;;
55224;SDS011;41091;49.400;8.684;2022-10-31T06:46:56;7.50;;;2.92;;
55224;SDS011;41091;49.400;8.684;2022-10-31T06:49:21;15.70;;;3.53;;
55224;SDS011;41091;49.400;8.684;2022-10-31T06:51:49;6.78;;;2.97;;
55224;SDS011;41091;49.400;8.684;2022-10-31T06:54:15;7.30;;;2.90;;
55224;SDS011;41091;49.400;8.684;2022-10-31T06:56:41;11.00;;;3.42;;
55224;SDS011;41091;49.400;8.684;2022-10-31T06:59:06;10.02;;;3.90;;
55224;SDS011;41091;49.400;8.684;2022-10-31T07:01:31;7.38;;;2.95;;
55224;SDS011;41091;49.400;8.684;2022-10-31T07:03:57;7.25;;;3.88;;
55224;SDS011;41091;49.400;8.684;2022-10-31T07:06:22;5.03;;;3.25;;
55224;SDS011;41091;49.400;8.684;2022-10-31T07:08:50;7.72;;;3.03;;
55224;SDS011;41091;49.400;8.684;2022-10-31T07:11:15;5.53;;;2.95;;
55224;SDS011;41091;49.400;8.684;2022-10-31T07:13:45;4.88;;;3.53;;
55224;SDS011;41091;49.400;8.684;2022-10-31T07:16:11;7.85;;;2.85;;
55224;SDS011;41091;49.400;8.684;2022-10-31T07:18:37;8.95;;;3.15;;
55224;SDS011;41091;49.400;8.684;2022-10-31T07:21:03;5.03;;;2.58;;
55224;SDS011;41091;49.400;8.684;2022-10-31T07:23:28;10.88;;;3.17;;
55224;SDS011;41091;49.400;8.684;2022-10-31T07:25:55;9.77;;;3.88;;
55224;SDS011;41091;49.400;8.684;2022-10-31T07:28:23;10.15;;;3.95;;
55224;SDS011;41091;49.400;8.684;2022-10-31T07:30:55;14.30;;;4.93;;
55224;SDS011;41091;49.400;8.684;2022-10-31T07:33:21;7.33;;;3.73;;
55224;SDS011;41091;49.400;8.684;2022-10-31T07:35:46;14.68;;;4.85;;
55224;SDS011;41091;49.400;8.684;2022-10-31T07:38:14;5.15;;;3.88;;
55224;SDS011;41091;49.400;8.684;2022-10-31T07:40:42;6.55;;;4.50;;
55224;SDS011;41091;49.400;8.684;2022-10-31T07:43:11;10.98;;;4.10;;
55224;SDS011;41091;49.400;8.684;2022-10-31T07:45:36;4.03;;;3.63;;
55224;SDS011;41091;49.400;8.684;2022-10-31T07:48:04;5.03;;;3.92;;
55224;SDS011;41091;49.400;8.684;2022-10-31T07:50:30;12.13;;;3.90;;
55224;SDS011;41091;49.400;8.684;2022-10-31T07:53:06;8.55;;;3.97;;
55224;SDS011;41091;49.400;8.684;2022-10-31T07:55:37;6.25;;;4.47;;
55224;SDS011;41091;49.400;8.684;2022-10-31T07:58:06;10.02;;;4.97;;
55224;SDS011;41091;49.400;8.684;2022-10-31T08:00:37;11.02;;;4.72;;
55224;SDS011;41091;49.400;8.684;2022-10-31T08:03:05;11.90;;;4.78;;
55224;SDS011;41091;49.400;8.684;2022-10-31T08:05:31;11.85;;;4.15;;
55224;SDS011;41091;49.400;8.684;2022-10-31T08:07:57;31.90;;;5.60;;
55224;SDS011;41091;49.400;8.684;2022-10-31T08:10:25;11.75;;;4.60;;
55224;SDS011;41091;49.400;8.684;2022-10-31T08:12:55;8.20;;;4.80;;
55224;SDS011;41091;49.400;8.684;2022-10-31T08:15:41;16.45;;;4.85;;
55224;SDS011;41091;49.400;8.684;2022-10-31T08:18:10;10.38;;;5.05;;
55224;SDS011;41091;49.400;8.684;2022-10-31T08:20:39;9.82;;;5.40;;
55224;SDS011;41091;49.400;8.684;2022-10-31T08:23:05;9.05;;;4.72;;
55224;SDS011;41091;49.400;8.684;2022-10-31T08:25:34;18.17;;;5.93;;
55224;SDS011;41091;49.400;8.684;2022-10-31T08:28:02;14.70;;;4.65;;
55224;SDS011;41091;49.400;8.684;2022-10-31T08:30:28;21.75;;;4.28;;
55224;SDS011;41091;49.400;8.684;2022-10-31T08:33:02;22.48;;;5.22;;
55224;SDS011;41091;49.400;8.684;2022-10-31T08:35:33;12.50;;;4.40;;
55224;SDS011;41091;49.400;8.684;2022-10-31T08:37:58;7.18;;;4.28;;
55224;SDS011;41091;49.400;8.684;2022-10-31T08:40:24;13.25;;;5.47;;
55224;SDS011;41091;49.400;8.684;2022-10-31T08:42:59;9.60;;;4.95;;
55224;SDS011;41091;49.400;8.684;2022-10-31T08:45:25;13.48;;;4.95;;
55224;SDS011;41091;49.400;8.684;2022-10-31T08:47:51;12.13;;;5.93;;
55224;SDS011;41091;49.400;8.684;2022-10-31T08:50:21;14.82;;;6.28;;
55224;SDS011;41091;49.400;8.684;2022-10-31T08:52:49;23.10;;;7.38;;
55224;SDS011;41091;49.400;8.684;2022-10-31T08:55:14;21.65;;;6.78;;
55224;SDS011;41091;49.400;8.684;2022-10-31T08:57:40;27.60;;;8.40;;
55224;SDS011;41091;49.400;8.684;2022-10-31T09:00:08;25.92;;;8.02;;
55224;SDS011;41091;49.400;8.684;2022-10-31T09:02:34;16.00;;;6.85;;
55224;SDS011;41091;49.400;8.684;2022-10-31T09:04:59;31.45;;;11.48;;
55224;SDS011;41091;49.400;8.684;2022-10-31T09:07:25;19.80;;;6.63;;
55224;SDS011;41091;49.400;8.684;2022-10-31T09:09:50;16.73;;;7.30;;
55224;SDS011;41091;49.400;8.684;2022-10-31T09:12:15;19.17;;;6.50;;
55224;SDS011;41091;49.400;8.684;2022-10-31T09:14:41;18.02;;;6.55;;
55224;SDS011;41091;49.400;8.684;2022-10-31T09:17:06;17.25;;;6.70;;
55224;SDS011;41091;49.400;8.684;2022-10-31T09:19:31;15.05;;;6.90;;
55224;SDS011;41091;49.400;8.684;2022-10-31T09:21:57;22.23;;;8.15;;
55224;SDS011;41091;49.400;8.684;2022-10-31T09:24:22;14.35;;;5.57;;
55224;SDS011;41091;49.400;8.684;2022-10-31T09:26:49;10.55;;;4.80;;
55224;SDS011;41091;49.400;8.684;2022-10-31T09:29:15;17.27;;;6.07;;
55224;SDS011;41091;49.400;8.684;2022-10-31T09:31:40;10.07;;;5.32;;
55224;SDS011;41091;49.400;8.684;2022-10-31T09:34:05;14.30;;;5.32;;
55224;SDS011;41091;49.400;8.684;2022-10-31T09:36:31;13.32;;;5.93;;
55224;SDS011;41091;49.400;8.684;2022-10-31T09:38:56;15.05;;;6.70;;
55224;SDS011;41091;49.400;8.684;2022-10-31T09:43:54;12.88;;;5.60;;
55224;SDS011;41091;49.400;8.684;2022-10-31T09:46:40;13.48;;;6.13;;
55224;SDS011;41091;49.400;8.684;2022-10-31T09:52:11;16.48;;;7.50;;
55224;SDS011;41091;49.400;8.684;2022-10-31T09:54:45;13.82;;;5.13;;
55224;SDS011;41091;49.400;8.684;2022-10-31T09:57:14;21.83;;;6.25;;
55224;SDS011;41091;49.400;8.684;2022-10-31T09:59:49;11.70;;;5.25;;
55224;SDS011;41091;49.400;8.684;2022-10-31T10:02:33;9.00;;;4.93;;
55224;SDS011;41091;49.400;8.684;2022-10-31T10:05:03;14.07;;;4.72;;
55224;SDS011;41091;49.400;8.684;2022-10-31T10:10:40;14.98;;;6.10;;
55224;SDS011;41091;49.400;8.684;2022-10-31T10:13:22;12.40;;;5.45;;
55224;SDS011;41091;49.400;8.684;2022-10-31T10:21:28;16.98;;;6.07;;
55224;SDS011;41091;49.400;8.684;2022-10-31T10:29:47;11.07;;;6.53;;
55224;SDS011;41091;49.400;8.684;2022-10-31T10:32:20;9.30;;;5.28;;
55224;SDS011;41091;49.400;8.684;2022-10-31T10:34:53;20.67;;;5.88;;
55224;SDS011;41091;49.400;8.684;2022-10-31T10:40:08;20.38;;;4.78;;
55224;SDS011;41091;49.400;8.684;2022-10-31T10:42:39;19.00;;;6.03;;
55224;SDS011;41091;49.400;8.684;2022-10-31T10:45:23;17.30;;;5.32;;
55224;SDS011;41091;49.400;8.684;2022-10-31T10:50:57;13.63;;;5.05;;
55224;SDS011;41091;49.400;8.684;2022-10-31T10:56:06;19.20;;;7.10;;
55224;SDS011;41091;49.400;8.684;2022-10-31T10:58:37;14.63;;;5.20;;
55224;SDS011;41091;49.400;8.684;2022-10-31T11:01:13;17.20;;;6.65;;
55224;SDS011;41091;49.400;8.684;2022-10-31T11:03:42;12.25;;;5.20;;
55224;SDS011;41091;49.400;8.684;2022-10-31T11:06:18;6.53;;;4.65;;
55224;SDS011;41091;49.400;8.684;2022-10-31T11:08:47;8.82;;;4.25;;
55224;SDS011;41091;49.400;8.684;2022-10-31T11:13:50;13.55;;;4.90;;
55224;SDS011;41091;49.400;8.684;2022-10-31T11:18:53;15.13;;;5.80;;
55224;SDS011;41091;49.400;8.684;2022-10-31T11:21:20;15.18;;;5.00;;
55224;SDS011;41091;49.400;8.684;2022-10-31T11:24:01;13.90;;;5.47;;
55224;SDS011;41091;49.400;8.684;2022-10-31T11:26:32;14.93;;;4.72;;
55224;SDS011;41091;49.400;8.684;2022-10-31T11:29:00;11.43;;;4.63;;
55224;SDS011;41091;49.400;8.684;2022-10-31T11:31:31;16.40;;;5.82;;
55224;SDS011;41091;49.400;8.684;2022-10-31T11:34:00;11.25;;;5.28;;
55224;SDS011;41091;49.400;8.684;2022-10-31T11:36:29;14.75;;;5.75;;
55224;SDS011;41091;49.400;8.684;2022-10-31T11:38:56;19.40;;;6.13;;
55224;SDS011;41091;49.400;8.684;2022-10-31T11:44:15;16.80;;;5.03;;
55224;SDS011;41091;49.400;8.684;2022-10-31T11:46:47;8.18;;;6.15;;
55224;SDS011;41091;49.400;8.684;2022-10-31T11:49:15;13.55;;;6.15;;
55224;SDS011;41091;49.400;8.684;2022-10-31T11:51:46;11.30;;;6.38;;
55224;SDS011;41091;49.400;8.684;2022-10-31T11:54:19;16.08;;;6.10;;
55224;SDS011;41091;49.400;8.684;2022-10-31T11:56:47;17.35;;;6.25;;
55224;SDS011;41091;49.400;8.684;2022-10-31T11:59:28;15.00;;;5.85;;
55224;SDS011;41091;49.400;8.684;2022-10-31T12:02:00;17.25;;;6.38;;
55224;SDS011;41091;49.400;8.684;2022-10-31T12:04:33;11.30;;;4.80;;
55224;SDS011;41091;49.400;8.684;2022-10-31T12:07:04;15.38;;;6.18;;
55224;SDS011;41091;49.400;8.684;2022-10-31T12:09:35;11.40;;;5.30;;
55224;SDS011;41091;49.400;8.684;2022-10-31T12:17:39;11.15;;;5.07;;
55224;SDS011;41091;49.400;8.684;2022-10-31T12:20:20;6.15;;;4.68;;
55224;SDS011;41091;49.400;8.684;2022-10-31T12:28:45;15.68;;;5.47;;
55224;SDS011;41091;49.400;8.684;2022-10-31T12:31:34;18.65;;;6.78;;
55224;SDS011;41091;49.400;8.684;2022-10-31T12:36:49;23.02;;;6.68;;
55224;SDS011;41091;49.400;8.684;2022-10-31T12:45:03;18.30;;;5.97;;
55224;SDS011;41091;49.400;8.684;2022-10-31T12:52:53;26.58;;;7.70;;
55224;SDS011;41091;49.400;8.684;2022-10-31T12:55:35;21.90;;;6.80;;
55224;SDS011;41091;49.400;8.684;2022-10-31T13:00:29;13.95;;;6.47;;
55224;SDS011;41091;49.400;8.684;2022-10-31T13:05:33;15.45;;;6.43;;
55224;SDS011;41091;49.400;8.684;2022-10-31T13:08:06;12.63;;;6.72;;
55224;SDS011;41091;49.400;8.684;2022-10-31T13:10:42;14.32;;;6.05;;
55224;SDS011;41091;49.400;8.684;2022-10-31T13:13:12;18.20;;;5.18;;
55224;SDS011;41091;49.400;8.684;2022-10-31T13:15:48;12.85;;;6.13;;
55224;SDS011;41091;49.400;8.684;2022-10-31T13:18:27;20.90;;;7.35;;
55224;SDS011;41091;49.400;8.684;2022-10-31T13:20:57;11.63;;;6.00;;
55224;SDS011;41091;49.400;8.684;2022-10-31T13:23:31;9.25;;;5.57;;
55224;SDS011;41091;49.400;8.684;2022-10-31T13:25:58;15.25;;;5.78;;
55224;SDS011;41091;49.400;8.684;2022-10-31T13:31:09;14.95;;;5.78;;
55224;SDS011;41091;49.400;8.684;2022-10-31T13:36:42;18.45;;;6.05;;
55224;SDS011;41091;49.400;8.684;2022-10-31T13:41:48;12.45;;;5.70;;
55224;SDS011;41091;49.400;8.684;2022-10-31T13:44:28;16.17;;;6.40;;
55224;SDS011;41091;49.400;8.684;2022-10-31T13:46:58;10.93;;;5.50;;
55224;SDS011;41091;49.400;8.684;2022-10-31T13:54:35;18.38;;;8.32;;
55224;SDS011;41091;49.400;8.684;2022-10-31T13:57:06;28.20;;;6.88;;
55224;SDS011;41091;49.400;8.684;2022-10-31T13:59:32;20.25;;;5.55;;
55224;SDS011;41091;49.400;8.684;2022-10-31T14:02:01;17.13;;;7.13;;
55224;SDS011;41091;49.400;8.684;2022-10-31T14:04:44;11.63;;;5.78;;
55224;SDS011;41091;49.400;8.684;2022-10-31T14:07:15;15.93;;;6.68;;
55224;SDS011;41091;49.400;8.684;2022-10-31T14:12:31;12.77;;;6.40;;
55224;SDS011;41091;49.400;8.684;2022-10-31T14:20:41;20.60;;;6.80;;
55224;SDS011;41091;49.400;8.684;2022-10-31T14:26:16;17.25;;;6.43;;
55224;SDS011;41091;49.400;8.684;2022-10-31T14:28:50;15.40;;;7.35;;
55224;SDS011;41091;49.400;8.684;2022-10-31T14:34:17;13.65;;;8.65;;
55224;SDS011;41091;49.400;8.684;2022-10-31T14:36:58;21.98;;;8.13;;
55224;SDS011;41091;49.400;8.684;2022-10-31T14:44:44;20.75;;;9.13;;
55224;SDS011;41091;49.400;8.684;2022-10-31T14:47:21;22.45;;;9.30;;
55224;SDS011;41091;49.400;8.684;2022-10-31T14:52:50;26.13;;;8.45;;
55224;SDS011;41091;49.400;8.684;2022-10-31T14:55:18;23.60;;;7.65;;
55224;SDS011;41091;49.400;8.684;2022-10-31T14:57:46;22.90;;;8.73;;
55224;SDS011;41091;49.400;8.684;2022-10-31T15:00:16;22.60;;;8.77;;
55224;SDS011;41091;49.400;8.684;2022-10-31T15:05:23;15.52;;;8.15;;
55224;SDS011;41091;49.400;8.684;2022-10-31T15:07:54;29.42;;;8.82;;
55224;SDS011;41091;49.400;8.684;2022-10-31T15:10:23;26.33;;;8.73;;
55224;SDS011;41091;49.400;8.684;2022-10-31T15:12:50;26.42;;;10.52;;
55224;SDS011;41091;49.400;8.684;2022-10-31T15:15:19;27.63;;;7.88;;
55224;SDS011;41091;49.400;8.684;2022-10-31T15:17:51;20.67;;;8.35;;
55224;SDS011;41091;49.400;8.684;2022-10-31T15:20:23;20.63;;;11.10;;
55224;SDS011;41091;49.400;8.684;2022-10-31T15:23:01;21.48;;;8.73;;
55224;SDS011;41091;49.400;8.684;2022-10-31T15:25:28;18.95;;;9.52;;
55224;SDS011;41091;49.400;8.684;2022-10-31T15:27:55;39.40;;;9.30;;
55224;SDS011;41091;49.400;8.684;2022-10-31T15:32:52;19.10;;;7.93;;
55224;SDS011;41091;49.400;8.684;2022-10-31T15:35:25;20.48;;;8.73;;
55224;SDS011;41091;49.400;8.684;2022-10-31T15:37:55;16.90;;;7.78;;
55224;SDS011;41091;49.400;8.684;2022-10-31T15:40:23;18.67;;;9.07;;
55224;SDS011;41091;49.400;8.684;2022-10-31T15:42:54;16.35;;;7.43;;
55224;SDS011;41091;49.400;8.684;2022-10-31T15:45:25;18.05;;;8.25;;
55224;SDS011;41091;49.400;8.684;2022-10-31T15:47:55;14.18;;;7.03;;
55224;SDS011;41091;49.400;8.684;2022-10-31T15:50:27;18.65;;;8.13;;
55224;SDS011;41091;49.400;8.684;2022-10-31T15:52:57;16.77;;;8.05;;
55224;SDS011;41091;49.400;8.684;2022-10-31T15:55:26;14.05;;;7.80;;
55224;SDS011;41091;49.400;8.684;2022-10-31T15:57:57;14.52;;;8.13;;
55224;SDS011;41091;49.400;8.684;2022-10-31T16:00:28;16.33;;;8.07;;
55224;SDS011;41091;49.400;8.684;2022-10-31T16:05:47;17.13;;;8.02;;
55224;SDS011;41091;49.400;8.684;2022-10-31T16:08:31;19.83;;;7.53;;
55224;SDS011;41091;49.400;8.684;2022-10-31T16:13:33;19.17;;;5.88;;
55224;SDS011;41091;49.400;8.684;2022-10-31T16:16:00;10.77;;;5.38;;
55224;SDS011;41091;49.400;8.684;2022-10-31T16:18:27;9.20;;;5.97;;
55224;SDS011;41091;49.400;8.684;2022-10-31T16:20:53;9.77;;;5.57;;
55224;SDS011;41091;49.400;8.684;2022-10-31T16:23:20;12.52;;;4.80;;
55224;SDS011;41091;49.400;8.684;2022-10-31T16:25:47;11.02;;;4.80;;
55224;SDS011;41091;49.400;8.684;2022-10-31T16:28:17;15.57;;;4.97;;
55224;SDS011;41091;49.400;8.684;2022-10-31T16:30:53;13.13;;;4.78;;
55224;SDS011;41091;49.400;8.684;2022-10-31T16:38:55;13.77;;;3.85;;
55224;SDS011;41091;49.400;8.684;2022-10-31T16:41:31;10.05;;;4.13;;
55224;SDS011;41091;49.400;8.684;2022-10-31T16:44:02;11.10;;;4.40;;
55224;SDS011;41091;49.400;8.684;2022-10-31T16:46:29;11.98;;;4.55;;
55224;SDS011;41091;49.400;8.684;2022-10-31T16:48:54;14.10;;;4.32;;
55224;SDS011;41091;49.400;8.684;2022-10-31T16:51:20;10.30;;;4.65;;
55224;SDS011;41091;49.400;8.684;2022-10-31T16:53:45;14.13;;;4.63;;
55224;SDS011;41091;49.400;8.684;2022-10-31T16:56:15;7.85;;;4.22;;
55224;SDS011;41091;49.400;8.684;2022-10-31T16:58:47;9.50;;;5.70;;
55224;SDS011;41091;49.400;8.684;2022-10-31T17:01:15;8.50;;;5.43;;
55224;SDS011;41091;49.400;8.684;2022-10-31T17:03:43;16.13;;;6.93;;
55224;SDS011;41091;49.400;8.684;2022-10-31T17:06:12;16.95;;;7.13;;
55224;SDS011;41091;49.400;8.684;2022-10-31T17:08:40;15.80;;;6.40;;
55224;SDS011;41091;49.400;8.684;2022-10-31T17:11:05;17.13;;;6.20;;
55224;SDS011;41091;49.400;8.684;2022-10-31T17:13:41;21.13;;;7.80;;
55224;SDS011;41091;49.400;8.684;2022-10-31T17:16:06;14.55;;;6.43;;
55224;SDS011;41091;49.400;8.684;2022-10-31T17:18:34;23.02;;;7.70;;
55224;SDS011;41091;49.400;8.684;2022-10-31T17:21:02;14.68;;;7.82;;
55224;SDS011;41091;49.400;8.684;2022-10-31T17:23:30;20.88;;;7.03;;
55224;SDS011;41091;49.400;8.684;2022-10-31T17:25:57;14.27;;;6.95;;
55224;SDS011;41091;49.400;8.684;2022-10-31T17:28:22;18.75;;;7.38;;
55224;SDS011;41091;49.400;8.684;2022-10-31T17:30:50;14.13;;;6.63;;
55224;SDS011;41091;49.400;8.684;2022-10-31T17:33:16;18.27;;;6.05;;
55224;SDS011;41091;49.400;8.684;2022-10-31T17:35:42;10.27;;;4.97;;
55224;SDS011;41091;49.400;8.684;2022-10-31T17:38:08;7.57;;;5.13;;